sensor_id;sensor_type;location;lat;lon;timestamp;temperature;humidity
5492;DHT22;2768;53.540;10.224;2024-02-04T00:01:22;7.40;99.90
5492;DHT22;2768;53.540;10.224;2024-02-04T00:07:15;7.40;99.90
5492;DHT22;2768;53.540;10.224;2024-02-04T00:13:10;7.40;99.90
5492;DHT22;2768;53.540;10.224;2024-02-04T00:19:03;7.40;99.90
5492;DHT22;2768;53.540;10.224;2024-02-04T00:24:57;7.40;99.90
5492;DHT22;2768;53.540;10.224;2024-02-04T00:30:57;7.30;99.90
5492;DHT22;2768;53.540;10.224;2024-02-04T00:36:51;7.30;99.90
5492;DHT22;2768;53.540;10.224;2024-02-04T00:42:44;7.30;99.90
5492;DHT22;2768;53.540;10.224;2024-02-04T00:48:39;7.20;99.90
5492;DHT22;2768;53.540;10.224;2024-02-04T00:54:34;7.20;99.90
5492;DHT22;2768;53.540;10.224;2024-02-04T01:00:27;7.20;99.90
5492;DHT22;2768;53.540;10.224;2024-02-04T01:06:22;7.20;99.90
5492;DHT22;2768;53.540;10.224;2024-02-04T01:12:15;7.10;99.90
5492;DHT22;2768;53.540;10.224;2024-02-04T01:18:09;7.00;99.90
5492;DHT22;2768;53.540;10.224;2024-02-04T01:24:04;7.00;99.90
5492;DHT22;2768;53.540;10.224;2024-02-04T01:29:58;7.00;99.90
5492;DHT22;2768;53.540;10.224;2024-02-04T01:35:51;7.00;99.90
5492;DHT22;2768;53.540;10.224;2024-02-04T01:41:47;7.10;99.90
5492;DHT22;2768;53.540;10.224;2024-02-04T01:47:40;7.10;99.90
5492;DHT22;2768;53.540;10.224;2024-02-04T01:53:34;7.20;99.90
5492;DHT22;2768;53.540;10.224;2024-02-04T01:59:29;7.30;99.90
5492;DHT22;2768;53.540;10.224;2024-02-04T02:05:23;7.20;99.90
5492;DHT22;2768;53.540;10.224;2024-02-04T02:11:21;7.20;99.90
5492;DHT22;2768;53.540;10.224;2024-02-04T02:17:24;7.30;99.90
5492;DHT22;2768;53.540;10.224;2024-02-04T02:23:22;7.30;99.90
5492;DHT22;2768;53.540;10.224;2024-02-04T02:29:20;7.30;99.90
5492;DHT22;2768;53.540;10.224;2024-02-04T02:35:14;7.40;99.90
5492;DHT22;2768;53.540;10.224;2024-02-04T02:41:08;7.40;99.90
5492;DHT22;2768;53.540;10.224;2024-02-04T02:47:05;7.40;99.90
5492;DHT22;2768;53.540;10.224;2024-02-04T02:52:59;7.40;99.90
5492;DHT22;2768;53.540;10.224;2024-02-04T02:58:53;7.40;99.90
5492;DHT22;2768;53.540;10.224;2024-02-04T03:04:47;7.40;99.90
5492;DHT22;2768;53.540;10.224;2024-02-04T03:10:41;7.40;99.90
5492;DHT22;2768;53.540;10.224;2024-02-04T03:16:34;7.30;99.90
5492;DHT22;2768;53.540;10.224;2024-02-04T03:22:29;7.30;99.90
5492;DHT22;2768;53.540;10.224;2024-02-04T03:28:23;7.30;99.90
5492;DHT22;2768;53.540;10.224;2024-02-04T03:34:16;7.30;99.90
5492;DHT22;2768;53.540;10.224;2024-02-04T03:40:12;7.20;99.90
5492;DHT22;2768;53.540;10.224;2024-02-04T03:46:06;7.20;99.90
5492;DHT22;2768;53.540;10.224;2024-02-04T03:52:00;7.20;99.90
5492;DHT22;2768;53.540;10.224;2024-02-04T03:57:55;7.20;99.90
5492;DHT22;2768;53.540;10.224;2024-02-04T04:03:49;7.20;99.90
5492;DHT22;2768;53.540;10.224;2024-02-04T04:09:42;7.10;99.90
5492;DHT22;2768;53.540;10.224;2024-02-04T04:15:37;7.10;99.90
5492;DHT22;2768;53.540;10.224;2024-02-04T04:21:31;7.10;99.90
5492;DHT22;2768;53.540;10.224;2024-02-04T04:27:25;7.10;99.90
5492;DHT22;2768;53.540;10.224;2024-02-04T04:33:19;7.00;99.90
5492;DHT22;2768;53.540;10.224;2024-02-04T04:39:13;7.10;99.90
5492;DHT22;2768;53.540;10.224;2024-02-04T04:45:07;7.00;99.90
5492;DHT22;2768;53.540;10.224;2024-02-04T04:51:02;7.10;99.90
5492;DHT22;2768;53.540;10.224;2024-02-04T04:56:55;7.00;99.90
5492;DHT22;2768;53.540;10.224;2024-02-04T05:02:49;6.90;99.90
5492;DHT22;2768;53.540;10.224;2024-02-04T05:08:44;6.90;99.90
5492;DHT22;2768;53.540;10.224;2024-02-04T05:14:37;6.90;99.90
5492;DHT22;2768;53.540;10.224;2024-02-04T05:20:30;6.80;99.90
5492;DHT22;2768;53.540;10.224;2024-02-04T05:26:25;6.80;99.90
5492;DHT22;2768;53.540;10.224;2024-02-04T05:32:18;6.80;99.90
5492;DHT22;2768;53.540;10.224;2024-02-04T05:38:12;6.70;99.90
5492;DHT22;2768;53.540;10.224;2024-02-04T05:44:07;6.80;99.90
5492;DHT22;2768;53.540;10.224;2024-02-04T05:50:01;6.70;99.90
5492;DHT22;2768;53.540;10.224;2024-02-04T05:55:54;6.70;99.90
5492;DHT22;2768;53.540;10.224;2024-02-04T06:01:49;6.60;99.90
5492;DHT22;2768;53.540;10.224;2024-02-04T06:07:43;6.60;99.90
5492;DHT22;2768;53.540;10.224;2024-02-04T06:13:36;6.70;99.90
5492;DHT22;2768;53.540;10.224;2024-02-04T06:19:31;6.70;99.90
5492;DHT22;2768;53.540;10.224;2024-02-04T06:25:24;6.70;99.90
5492;DHT22;2768;53.540;10.224;2024-02-04T06:31:18;6.70;99.90
5492;DHT22;2768;53.540;10.224;2024-02-04T06:37:15;6.70;99.90
5492;DHT22;2768;53.540;10.224;2024-02-04T06:43:08;6.70;99.90
5492;DHT22;2768;53.540;10.224;2024-02-04T06:49:01;6.70;99.90
5492;DHT22;2768;53.540;10.224;2024-02-04T06:54:56;6.70;99.90
5492;DHT22;2768;53.540;10.224;2024-02-04T07:00:49;6.70;99.90
5492;DHT22;2768;53.540;10.224;2024-02-04T07:06:43;6.70;99.90
5492;DHT22;2768;53.540;10.224;2024-02-04T07:12:37;6.60;99.90
5492;DHT22;2768;53.540;10.224;2024-02-04T07:18:31;6.60;99.90
5492;DHT22;2768;53.540;10.224;2024-02-04T07:24:24;6.60;99.90
5492;DHT22;2768;53.540;10.224;2024-02-04T07:30:19;6.70;99.90
5492;DHT22;2768;53.540;10.224;2024-02-04T07:36:13;6.70;99.90
5492;DHT22;2768;53.540;10.224;2024-02-04T07:42:06;6.70;99.90
5492;DHT22;2768;53.540;10.224;2024-02-04T07:48:01;6.70;99.90
5492;DHT22;2768;53.540;10.224;2024-02-04T07:53:55;6.70;99.90
5492;DHT22;2768;53.540;10.224;2024-02-04T07:59:48;6.70;99.90
5492;DHT22;2768;53.540;10.224;2024-02-04T08:05:42;6.70;99.90
5492;DHT22;2768;53.540;10.224;2024-02-04T08:11:36;6.70;99.90
5492;DHT22;2768;53.540;10.224;2024-02-04T08:17:29;6.80;99.90
5492;DHT22;2768;53.540;10.224;2024-02-04T08:23:24;6.80;99.90
5492;DHT22;2768;53.540;10.224;2024-02-04T08:29:18;6.80;99.90
5492;DHT22;2768;53.540;10.224;2024-02-04T08:35:12;6.80;99.90
5492;DHT22;2768;53.540;10.224;2024-02-04T08:41:07;6.80;99.90
5492;DHT22;2768;53.540;10.224;2024-02-04T08:47:00;6.90;99.90
5492;DHT22;2768;53.540;10.224;2024-02-04T08:52:53;7.00;99.90
5492;DHT22;2768;53.540;10.224;2024-02-04T08:58:48;6.90;99.90
5492;DHT22;2768;53.540;10.224;2024-02-04T09:04:41;7.00;99.90
5492;DHT22;2768;53.540;10.224;2024-02-04T09:10:35;7.00;99.90
5492;DHT22;2768;53.540;10.224;2024-02-04T09:16:30;7.10;99.90
5492;DHT22;2768;53.540;10.224;2024-02-04T09:22:23;7.10;99.90
5492;DHT22;2768;53.540;10.224;2024-02-04T09:28:17;7.10;99.90
5492;DHT22;2768;53.540;10.224;2024-02-04T09:34:12;7.10;99.90
5492;DHT22;2768;53.540;10.224;2024-02-04T09:40:12;7.20;99.90
5492;DHT22;2768;53.540;10.224;2024-02-04T09:46:05;7.20;99.90
5492;DHT22;2768;53.540;10.224;2024-02-04T09:52:03;7.20;99.90
5492;DHT22;2768;53.540;10.224;2024-02-04T09:57:58;7.30;99.90
5492;DHT22;2768;53.540;10.224;2024-02-04T10:03:51;7.30;99.90
5492;DHT22;2768;53.540;10.224;2024-02-04T10:09:46;7.40;99.90
5492;DHT22;2768;53.540;10.224;2024-02-04T10:15:40;7.50;99.90
5492;DHT22;2768;53.540;10.224;2024-02-04T10:21:33;7.50;99.90
5492;DHT22;2768;53.540;10.224;2024-02-04T10:27:28;7.50;99.90
5492;DHT22;2768;53.540;10.224;2024-02-04T10:33:30;7.50;99.90
5492;DHT22;2768;53.540;10.224;2024-02-04T10:39:24;7.50;99.90
5492;DHT22;2768;53.540;10.224;2024-02-04T10:45:19;7.50;99.90
5492;DHT22;2768;53.540;10.224;2024-02-04T10:51:15;7.50;99.90
5492;DHT22;2768;53.540;10.224;2024-02-04T10:57:12;7.60;99.90
5492;DHT22;2768;53.540;10.224;2024-02-04T11:03:08;7.60;99.90
5492;DHT22;2768;53.540;10.224;2024-02-04T11:09:03;7.60;99.90
5492;DHT22;2768;53.540;10.224;2024-02-04T11:15:01;7.70;99.90
5492;DHT22;2768;53.540;10.224;2024-02-04T11:21:09;7.70;99.90
5492;DHT22;2768;53.540;10.224;2024-02-04T11:27:07;7.70;99.90
5492;DHT22;2768;53.540;10.224;2024-02-04T11:33:01;7.70;99.90
5492;DHT22;2768;53.540;10.224;2024-02-04T11:38:59;7.80;99.90
5492;DHT22;2768;53.540;10.224;2024-02-04T11:45:07;7.80;99.90
5492;DHT22;2768;53.540;10.224;2024-02-04T11:51:00;7.90;99.90
5492;DHT22;2768;53.540;10.224;2024-02-04T11:56:55;8.00;99.90
5492;DHT22;2768;53.540;10.224;2024-02-04T12:03:00;8.00;99.90
5492;DHT22;2768;53.540;10.224;2024-02-04T12:08:53;8.00;99.90
5492;DHT22;2768;53.540;10.224;2024-02-04T12:14:49;8.10;99.90
5492;DHT22;2768;53.540;10.224;2024-02-04T12:20:43;8.10;99.90
5492;DHT22;2768;53.540;10.224;2024-02-04T12:26:37;8.10;99.90
5492;DHT22;2768;53.540;10.224;2024-02-04T12:32:34;8.10;99.90
5492;DHT22;2768;53.540;10.224;2024-02-04T12:38:29;8.20;99.90
5492;DHT22;2768;53.540;10.224;2024-02-04T12:44:22;8.20;99.90
5492;DHT22;2768;53.540;10.224;2024-02-04T12:50:17;8.30;99.90
5492;DHT22;2768;53.540;10.224;2024-02-04T12:56:11;8.30;99.90
5492;DHT22;2768;53.540;10.224;2024-02-04T13:02:06;8.40;99.70
5492;DHT22;2768;53.540;10.224;2024-02-04T13:08:03;8.40;97.20
5492;DHT22;2768;53.540;10.224;2024-02-04T13:13:58;8.40;91.90
5492;DHT22;2768;53.540;10.224;2024-02-04T13:19:51;8.40;91.40
5492;DHT22;2768;53.540;10.224;2024-02-04T13:25:46;8.40;92.70
5492;DHT22;2768;53.540;10.224;2024-02-04T13:31:39;8.40;92.30
5492;DHT22;2768;53.540;10.224;2024-02-04T13:37:34;8.40;94.70
5492;DHT22;2768;53.540;10.224;2024-02-04T13:43:29;8.50;95.00
5492;DHT22;2768;53.540;10.224;2024-02-04T13:49:22;8.40;98.10
5492;DHT22;2768;53.540;10.224;2024-02-04T13:55:16;8.50;96.90
5492;DHT22;2768;53.540;10.224;2024-02-04T14:01:11;8.50;94.60
5492;DHT22;2768;53.540;10.224;2024-02-04T14:07:05;8.50;95.20
5492;DHT22;2768;53.540;10.224;2024-02-04T14:12:59;8.50;94.50
5492;DHT22;2768;53.540;10.224;2024-02-04T14:18:53;8.50;94.20
5492;DHT22;2768;53.540;10.224;2024-02-04T14:24:52;8.40;94.30
5492;DHT22;2768;53.540;10.224;2024-02-04T14:30:45;8.50;93.40
5492;DHT22;2768;53.540;10.224;2024-02-04T14:36:40;8.40;94.70
5492;DHT22;2768;53.540;10.224;2024-02-04T14:42:33;8.40;96.30
5492;DHT22;2768;53.540;10.224;2024-02-04T14:48:30;8.40;97.80
5492;DHT22;2768;53.540;10.224;2024-02-04T14:54:25;8.40;99.90
5492;DHT22;2768;53.540;10.224;2024-02-04T15:00:19;8.40;99.90
5492;DHT22;2768;53.540;10.224;2024-02-04T15:06:16;8.30;99.90
5492;DHT22;2768;53.540;10.224;2024-02-04T15:12:12;8.40;99.90
5492;DHT22;2768;53.540;10.224;2024-02-04T15:18:07;8.30;99.90
5492;DHT22;2768;53.540;10.224;2024-02-04T15:24:01;8.30;99.90
5492;DHT22;2768;53.540;10.224;2024-02-04T15:29:59;8.20;99.90
5492;DHT22;2768;53.540;10.224;2024-02-04T15:35:52;8.20;99.90
5492;DHT22;2768;53.540;10.224;2024-02-04T15:41:46;8.10;99.90
5492;DHT22;2768;53.540;10.224;2024-02-04T15:47:48;8.00;99.90
5492;DHT22;2768;53.540;10.224;2024-02-04T15:53:42;7.90;99.90
5492;DHT22;2768;53.540;10.224;2024-02-04T15:59:43;7.80;99.90
5492;DHT22;2768;53.540;10.224;2024-02-04T16:05:40;7.80;99.90
5492;DHT22;2768;53.540;10.224;2024-02-04T16:11:42;7.70;99.90
5492;DHT22;2768;53.540;10.224;2024-02-04T16:17:38;7.70;99.90
5492;DHT22;2768;53.540;10.224;2024-02-04T16:23:32;7.60;99.90
5492;DHT22;2768;53.540;10.224;2024-02-04T16:29:26;7.50;99.90
5492;DHT22;2768;53.540;10.224;2024-02-04T16:35:20;7.50;99.90
5492;DHT22;2768;53.540;10.224;2024-02-04T16:41:15;7.50;99.90
5492;DHT22;2768;53.540;10.224;2024-02-04T16:47:08;7.50;99.90
5492;DHT22;2768;53.540;10.224;2024-02-04T16:53:02;7.50;99.90
5492;DHT22;2768;53.540;10.224;2024-02-04T16:58:57;7.50;99.90
5492;DHT22;2768;53.540;10.224;2024-02-04T17:04:51;7.40;99.90
5492;DHT22;2768;53.540;10.224;2024-02-04T17:10:45;7.40;99.90
5492;DHT22;2768;53.540;10.224;2024-02-04T17:16:45;7.40;99.90
5492;DHT22;2768;53.540;10.224;2024-02-04T17:22:46;7.40;99.90
5492;DHT22;2768;53.540;10.224;2024-02-04T17:28:40;7.40;99.90
5492;DHT22;2768;53.540;10.224;2024-02-04T17:34:36;7.40;99.90
5492;DHT22;2768;53.540;10.224;2024-02-04T17:40:29;7.40;99.90
5492;DHT22;2768;53.540;10.224;2024-02-04T17:46:23;7.40;99.90
5492;DHT22;2768;53.540;10.224;2024-02-04T17:52:20;7.50;99.90
5492;DHT22;2768;53.540;10.224;2024-02-04T17:58:14;7.50;99.90
5492;DHT22;2768;53.540;10.224;2024-02-04T18:04:07;7.40;99.90
5492;DHT22;2768;53.540;10.224;2024-02-04T18:10:03;7.50;99.90
5492;DHT22;2768;53.540;10.224;2024-02-04T18:15:57;7.50;99.90
5492;DHT22;2768;53.540;10.224;2024-02-04T18:21:51;7.50;99.90
5492;DHT22;2768;53.540;10.224;2024-02-04T18:27:46;7.50;99.90
5492;DHT22;2768;53.540;10.224;2024-02-04T18:33:40;7.50;99.90
5492;DHT22;2768;53.540;10.224;2024-02-04T18:39:33;7.50;99.90
5492;DHT22;2768;53.540;10.224;2024-02-04T18:45:50;7.50;99.90
5492;DHT22;2768;53.540;10.224;2024-02-04T18:51:47;7.60;99.90
5492;DHT22;2768;53.540;10.224;2024-02-04T18:57:40;7.50;99.90
5492;DHT22;2768;53.540;10.224;2024-02-04T19:03:37;7.60;99.90
5492;DHT22;2768;53.540;10.224;2024-02-04T19:09:31;7.50;99.90
5492;DHT22;2768;53.540;10.224;2024-02-04T19:15:24;7.60;99.90
5492;DHT22;2768;53.540;10.224;2024-02-04T19:21:19;7.50;99.90
5492;DHT22;2768;53.540;10.224;2024-02-04T19:27:13;7.60;99.90
5492;DHT22;2768;53.540;10.224;2024-02-04T19:33:06;7.60;99.90
5492;DHT22;2768;53.540;10.224;2024-02-04T19:39:01;7.60;99.90
5492;DHT22;2768;53.540;10.224;2024-02-04T19:44:54;7.60;99.90
5492;DHT22;2768;53.540;10.224;2024-02-04T19:50:47;7.60;99.90
5492;DHT22;2768;53.540;10.224;2024-02-04T19:56:42;7.60;99.90
5492;DHT22;2768;53.540;10.224;2024-02-04T20:02:35;7.60;99.90
5492;DHT22;2768;53.540;10.224;2024-02-04T20:08:29;7.60;99.90
5492;DHT22;2768;53.540;10.224;2024-02-04T20:14:23;7.50;99.90
5492;DHT22;2768;53.540;10.224;2024-02-04T20:20:17;7.50;99.90
5492;DHT22;2768;53.540;10.224;2024-02-04T20:26:11;7.50;99.90
5492;DHT22;2768;53.540;10.224;2024-02-04T20:32:06;7.40;99.90
5492;DHT22;2768;53.540;10.224;2024-02-04T20:38:00;7.40;99.90
5492;DHT22;2768;53.540;10.224;2024-02-04T20:43:53;7.40;99.90
5492;DHT22;2768;53.540;10.224;2024-02-04T20:49:48;7.40;99.90
5492;DHT22;2768;53.540;10.224;2024-02-04T20:55:41;7.40;99.90
5492;DHT22;2768;53.540;10.224;2024-02-04T21:01:34;7.40;99.90
5492;DHT22;2768;53.540;10.224;2024-02-04T21:07:29;7.40;99.90
5492;DHT22;2768;53.540;10.224;2024-02-04T21:13:23;7.40;99.90
5492;DHT22;2768;53.540;10.224;2024-02-04T21:19:16;7.40;99.90
5492;DHT22;2768;53.540;10.224;2024-02-04T21:25:11;7.50;99.90
5492;DHT22;2768;53.540;10.224;2024-02-04T21:31:05;7.50;99.90
5492;DHT22;2768;53.540;10.224;2024-02-04T21:36:59;7.60;99.90
5492;DHT22;2768;53.540;10.224;2024-02-04T21:42:54;7.50;99.90
5492;DHT22;2768;53.540;10.224;2024-02-04T21:48:47;7.60;99.90
5492;DHT22;2768;53.540;10.224;2024-02-04T21:54:42;7.70;99.90
5492;DHT22;2768;53.540;10.224;2024-02-04T22:00:37;7.80;99.90
5492;DHT22;2768;53.540;10.224;2024-02-04T22:06:33;7.90;99.90
5492;DHT22;2768;53.540;10.224;2024-02-04T22:12:26;8.00;99.90
5492;DHT22;2768;53.540;10.224;2024-02-04T22:18:21;8.10;99.90
5492;DHT22;2768;53.540;10.224;2024-02-04T22:24:14;8.20;99.90
5492;DHT22;2768;53.540;10.224;2024-02-04T22:30:08;8.20;99.90
5492;DHT22;2768;53.540;10.224;2024-02-04T22:36:04;8.30;99.90
5492;DHT22;2768;53.540;10.224;2024-02-04T22:41:58;8.30;99.90
5492;DHT22;2768;53.540;10.224;2024-02-04T22:47:51;8.40;99.90
5492;DHT22;2768;53.540;10.224;2024-02-04T22:53:46;8.50;99.90
5492;DHT22;2768;53.540;10.224;2024-02-04T22:59:39;8.60;99.90
5492;DHT22;2768;53.540;10.224;2024-02-04T23:05:33;8.60;99.90
5492;DHT22;2768;53.540;10.224;2024-02-04T23:11:28;8.80;99.90
5492;DHT22;2768;53.540;10.224;2024-02-04T23:17:21;8.90;99.90
5492;DHT22;2768;53.540;10.224;2024-02-04T23:23:14;9.00;99.90
5492;DHT22;2768;53.540;10.224;2024-02-04T23:29:09;9.10;99.90
5492;DHT22;2768;53.540;10.224;2024-02-04T23:35:04;9.20;99.90
5492;DHT22;2768;53.540;10.224;2024-02-04T23:40:57;9.10;99.90
5492;DHT22;2768;53.540;10.224;2024-02-04T23:46:52;9.10;99.90
5492;DHT22;2768;53.540;10.224;2024-02-04T23:52:45;9.10;99.90
5492;DHT22;2768;53.540;10.224;2024-02-04T23:58:39;9.10;99.90
